Newton Junction, New Hampshire
Current Conditions -  °F | °C
As of 5:54 PM on Monday 20 Oct 2014 (Local Time) from KLWM Reporting Station
Few Clouds Few Clouds  
Wind Chill: 53°   Ceiling: Unl
Heat Index: 53°   Visibility: 10mi
Dew Point: 32°   Wind: 7mph
Humidity: 45%   Direction: 250°WSW
Pressure: 29.98"   Gusts: NA
Location:  42.87°N, 71.07°W
Report Text: KLWM 202154Z 25006KT 10SM FEW100 12/00 A2998 RMK AO2 SLP154 T01170000
Loading
Personal Weather Stations






























Interactive Weather Map
Tropical Storm Tracking
New forecast layout! Learn more

10-Day Weather Forecast

Advertisements
Track Severe Weather on mobile